Marnoto De Aveiro — CUJB — position and weather

sailwx.info

Track history (hours):
 
Tides and Currents Weather Stations Pressure Air Temp Water Temp Dewpoint Dewpoint Depression Visibility Wind Speed Wind Dir Waves Ship Positions

Marnoto De Aveiro

Last reported at 2017-Sep-08 03:07 UTC. Time now 2017-Sep-25 15:21 UTC.
Position N 40°29' W 008°59'.
Warning: this ship's position is 17 days out of date.

Length 24 m.

Type: Fishing. MMSI: 263450000.

Date/timePositionNaut miles runAvg speedWind from/ knotsBaromVisibWave heightAir tempDewpointWater temp
2017-Sep-08 03:07N 40°29' W 008°59'1 3.3
2017-Sep-08 02:55N 40°30' W 008°59'3 3.2
2017-Sep-08 01:57N 40°33' W 008°58'2 3.6
2017-Sep-08 01:29N 40°34' W 008°57'6 0.6
2017-Sep-07 16:05N 40°38' W 008°51'1 7.1
2017-Sep-07 15:58N 40°37' W 008°52'3 6.3
2017-Sep-07 15:30N 40°36' W 008°56'1 2.2
2017-Sep-07 14:59N 40°35' W 008°55'2 3.2
2017-Sep-07 14:30N 40°34' W 008°55'3 3.3
2017-Sep-07 13:37N 40°31' W 008°56'1 2.5
2017-Sep-07 13:12N 40°32' W 008°56'3 1.1
2017-Sep-07 10:46N 40°34' W 008°54'1 3.0
2017-Sep-07 10:30N 40°34' W 008°55'2 3.1
2017-Sep-07 10:00N 40°32' W 008°55'2 3.2
2017-Sep-07 09:29N 40°30' W 008°56'2 3.1
2017-Sep-07 08:58N 40°29' W 008°56'2 3.6
2017-Sep-07 08:30N 40°27' W 008°57'1 2.9
2017-Sep-07 08:00N 40°26' W 008°57'2 3.2
2017-Sep-07 07:29N 40°24' W 008°58'2 3.2
2017-Sep-07 06:58N 40°23' W 008°58'1 3.1
2017-Sep-07 06:30N 40°21' W 008°59'  
2017-Sep-03 19:09N 40°26' W 008°60'1 2.8
2017-Sep-03 18:46N 40°25' W 008°59'1 3.4
2017-Sep-03 18:27N 40°24' W 008°59'2 3.4
2017-Sep-03 18:00N 40°23' W 008°60'2 3.3
2017-Sep-03 17:30N 40°21' W 009°00'2 3.7
2017-Sep-03 17:00N 40°19' W 009°01'13 3.1
2017-Sep-03 12:47N 40°32' W 008°58'1 3.5
2017-Sep-03 12:28N 40°33' W 008°57'2 3.5
2017-Sep-03 11:55N 40°35' W 008°56'2 3.7
2017-Sep-03 11:30N 40°36' W 008°55'3 2.9
2017-Sep-03 10:30N 40°33' W 008°55'10 3.2
2017-Sep-03 07:19N 40°23' W 008°58'1 3.4
2017-Sep-03 06:59N 40°22' W 008°58'2 3.3
2017-Sep-03 06:30N 40°21' W 008°59'2 3.2
2017-Sep-03 06:00N 40°19' W 008°59'2 3.2
2017-Sep-03 05:30N 40°17' W 008°60'8 1.4
2017-Sep-02 23:46N 40°25' W 009°04'1 3.2
2017-Sep-02 23:30N 40°26' W 009°04'1 2.5
2017-Sep-02 23:00N 40°25' W 009°05'2 3.4
2017-Sep-02 22:30N 40°23' W 009°05'2 3.4
2017-Sep-02 22:00N 40°21' W 009°06'2 3.4
2017-Sep-02 21:30N 40°20' W 009°06'2 3.3
2017-Sep-02 21:00N 40°18' W 009°07'2 3.4
2017-Sep-02 20:30N 40°16' W 009°07'  
Track history (hours):
 
Tides and Currents Weather Stations Pressure Air Temp Water Temp Dewpoint Dewpoint Depression Visibility Wind Speed Wind Dir Waves Ship Positions

Marnoto De Aveiro

Last reported at 2017-Sep-08 03:07 UTC. Time now 2017-Sep-25 15:21 UTC.
Position N 40°29' W 008°59'.
Warning: this ship's position is 17 days out of date.

Length 24 m.

Type: Fishing. MMSI: 263450000.

Date/timePositionNaut miles runAvg speedWind from/ knotsBaromVisibWave heightAir tempDewpointWater temp
2017-Sep-08 03:07N 40°29' W 008°59'1 3.3
2017-Sep-08 02:55N 40°30' W 008°59'3 3.2
2017-Sep-08 01:57N 40°33' W 008°58'2 3.6
2017-Sep-08 01:29N 40°34' W 008°57'6 0.6
2017-Sep-07 16:05N 40°38' W 008°51'1 7.1
2017-Sep-07 15:58N 40°37' W 008°52'3 6.3
2017-Sep-07 15:30N 40°36' W 008°56'1 2.2
2017-Sep-07 14:59N 40°35' W 008°55'2 3.2
2017-Sep-07 14:30N 40°34' W 008°55'3 3.3
2017-Sep-07 13:37N 40°31' W 008°56'1 2.5
2017-Sep-07 13:12N 40°32' W 008°56'3 1.1
2017-Sep-07 10:46N 40°34' W 008°54'1 3.0
2017-Sep-07 10:30N 40°34' W 008°55'2 3.1
2017-Sep-07 10:00N 40°32' W 008°55'2 3.2
2017-Sep-07 09:29N 40°30' W 008°56'2 3.1
2017-Sep-07 08:58N 40°29' W 008°56'2 3.6
2017-Sep-07 08:30N 40°27' W 008°57'1 2.9
2017-Sep-07 08:00N 40°26' W 008°57'2 3.2
2017-Sep-07 07:29N 40°24' W 008°58'2 3.2
2017-Sep-07 06:58N 40°23' W 008°58'1 3.1
2017-Sep-07 06:30N 40°21' W 008°59'  
2017-Sep-03 19:09N 40°26' W 008°60'1 2.8
2017-Sep-03 18:46N 40°25' W 008°59'1 3.4
2017-Sep-03 18:27N 40°24' W 008°59'2 3.4
2017-Sep-03 18:00N 40°23' W 008°60'2 3.3
2017-Sep-03 17:30N 40°21' W 009°00'2 3.7
2017-Sep-03 17:00N 40°19' W 009°01'13 3.1
2017-Sep-03 12:47N 40°32' W 008°58'1 3.5
2017-Sep-03 12:28N 40°33' W 008°57'2 3.5
2017-Sep-03 11:55N 40°35' W 008°56'2 3.7
2017-Sep-03 11:30N 40°36' W 008°55'3 2.9
2017-Sep-03 10:30N 40°33' W 008°55'10 3.2
2017-Sep-03 07:19N 40°23' W 008°58'1 3.4
2017-Sep-03 06:59N 40°22' W 008°58'2 3.3
2017-Sep-03 06:30N 40°21' W 008°59'2 3.2
2017-Sep-03 06:00N 40°19' W 008°59'2 3.2
2017-Sep-03 05:30N 40°17' W 008°60'8 1.4
2017-Sep-02 23:46N 40°25' W 009°04'1 3.2
2017-Sep-02 23:30N 40°26' W 009°04'1 2.5
2017-Sep-02 23:00N 40°25' W 009°05'2 3.4
2017-Sep-02 22:30N 40°23' W 009°05'2 3.4
2017-Sep-02 22:00N 40°21' W 009°06'2 3.4
2017-Sep-02 21:30N 40°20' W 009°06'2 3.3
2017-Sep-02 21:00N 40°18' W 009°07'2 3.4
2017-Sep-02 20:30N 40°16' W 009°07'  

Dump ship's entire track history